sensor_id;sensor_type;location;lat;lon;timestamp;pressure;altitude;pressure_sealevel;temperature;humidity
61055;BME280;46939;48.940;8.258;2022-09-09T00:02:24;99963.88;;;21.41;57.54
61055;BME280;46939;48.940;8.258;2022-09-09T00:04:59;99966.56;;;21.36;56.67
61055;BME280;46939;48.940;8.258;2022-09-09T00:07:36;99966.81;;;21.40;56.99
61055;BME280;46939;48.940;8.258;2022-09-09T00:10:16;99969.81;;;21.38;56.98
61055;BME280;46939;48.940;8.258;2022-09-09T00:12:54;99962.75;;;21.32;57.41
61055;BME280;46939;48.940;8.258;2022-09-09T00:15:33;99961.44;;;21.40;58.64
61055;BME280;46939;48.940;8.258;2022-09-09T00:18:13;99966.00;;;21.44;58.31
61055;BME280;46939;48.940;8.258;2022-09-09T00:20:48;99961.19;;;21.41;58.45
61055;BME280;46939;48.940;8.258;2022-09-09T00:23:24;99960.09;;;21.37;58.85
61055;BME280;46939;48.940;8.258;2022-09-09T00:26:02;99956.31;;;21.38;58.07
61055;BME280;46939;48.940;8.258;2022-09-09T00:28:37;99966.53;;;21.31;58.71
61055;BME280;46939;48.940;8.258;2022-09-09T00:31:13;99965.19;;;21.24;58.28
61055;BME280;46939;48.940;8.258;2022-09-09T00:33:44;99963.84;;;21.26;58.36
61055;BME280;46939;48.940;8.258;2022-09-09T00:36:14;99954.69;;;21.27;57.76
61055;BME280;46939;48.940;8.258;2022-09-09T00:38:47;99957.91;;;21.29;58.04
61055;BME280;46939;48.940;8.258;2022-09-09T00:41:21;99958.97;;;21.23;58.13
61055;BME280;46939;48.940;8.258;2022-09-09T00:43:57;99965.44;;;21.27;58.49
61055;BME280;46939;48.940;8.258;2022-09-09T00:46:41;99967.31;;;21.11;57.67
61055;BME280;46939;48.940;8.258;2022-09-09T00:49:22;99968.13;;;21.12;57.87
61055;BME280;46939;48.940;8.258;2022-09-09T00:52:02;99964.06;;;21.09;57.99
61055;BME280;46939;48.940;8.258;2022-09-09T00:54:40;99972.72;;;21.16;58.38
61055;BME280;46939;48.940;8.258;2022-09-09T00:57:21;99979.94;;;21.06;59.23
61055;BME280;46939;48.940;8.258;2022-09-09T01:00:14;99974.56;;;20.95;58.92
61055;BME280;46939;48.940;8.258;2022-09-09T01:02:53;99985.09;;;21.07;59.58
61055;BME280;46939;48.940;8.258;2022-09-09T01:05:30;99979.66;;;20.97;59.72
61055;BME280;46939;48.940;8.258;2022-09-09T01:08:09;99993.38;;;20.90;60.71
61055;BME280;46939;48.940;8.258;2022-09-09T01:10:47;100004.69;;;20.87;59.61
61055;BME280;46939;48.940;8.258;2022-09-09T01:13:24;100009.13;;;20.56;59.88
61055;BME280;46939;48.940;8.258;2022-09-09T01:15:57;100010.91;;;20.40;59.44
61055;BME280;46939;48.940;8.258;2022-09-09T01:18:34;100012.09;;;20.55;60.15
61055;BME280;46939;48.940;8.258;2022-09-09T01:21:13;100008.63;;;20.17;61.86
61055;BME280;46939;48.940;8.258;2022-09-09T01:23:58;99996.94;;;19.96;63.49
61055;BME280;46939;48.940;8.258;2022-09-09T01:26:41;99995.19;;;20.17;63.61
61055;BME280;46939;48.940;8.258;2022-09-09T01:29:21;100002.75;;;20.20;63.01
61055;BME280;46939;48.940;8.258;2022-09-09T01:31:55;100002.31;;;19.96;64.03
61055;BME280;46939;48.940;8.258;2022-09-09T01:34:28;99998.34;;;20.04;64.97
61055;BME280;46939;48.940;8.258;2022-09-09T01:36:59;99999.78;;;20.21;64.54
61055;BME280;46939;48.940;8.258;2022-09-09T01:39:31;100002.66;;;20.10;64.59
61055;BME280;46939;48.940;8.258;2022-09-09T01:42:09;99996.88;;;20.28;64.53
61055;BME280;46939;48.940;8.258;2022-09-09T01:44:38;99994.75;;;20.30;64.34
61055;BME280;46939;48.940;8.258;2022-09-09T01:47:07;99992.88;;;20.36;64.44
61055;BME280;46939;48.940;8.258;2022-09-09T01:50:02;99989.94;;;20.37;64.84
61055;BME280;46939;48.940;8.258;2022-09-09T01:52:33;99991.84;;;20.42;64.39
61055;BME280;46939;48.940;8.258;2022-09-09T01:55:08;99982.03;;;20.20;64.52
61055;BME280;46939;48.940;8.258;2022-09-09T01:57:48;99980.69;;;20.18;64.67
61055;BME280;46939;48.940;8.258;2022-09-09T02:00:20;99969.88;;;20.13;64.53
61055;BME280;46939;48.940;8.258;2022-09-09T02:03:00;99971.03;;;20.22;64.73
61055;BME280;46939;48.940;8.258;2022-09-09T02:05:42;99960.72;;;20.09;63.71
61055;BME280;46939;48.940;8.258;2022-09-09T02:08:25;99968.28;;;20.17;63.05
61055;BME280;46939;48.940;8.258;2022-09-09T02:11:05;99966.47;;;20.22;62.97
61055;BME280;46939;48.940;8.258;2022-09-09T02:13:46;99970.19;;;20.21;63.42
61055;BME280;46939;48.940;8.258;2022-09-09T02:16:21;99962.91;;;20.17;63.51
61055;BME280;46939;48.940;8.258;2022-09-09T02:18:54;99958.03;;;20.09;63.09
61055;BME280;46939;48.940;8.258;2022-09-09T02:21:34;99956.97;;;20.10;64.01
61055;BME280;46939;48.940;8.258;2022-09-09T02:24:05;99956.94;;;20.05;63.56
61055;BME280;46939;48.940;8.258;2022-09-09T02:26:42;99954.75;;;20.02;63.88
61055;BME280;46939;48.940;8.258;2022-09-09T02:29:19;99959.63;;;20.05;64.08
61055;BME280;46939;48.940;8.258;2022-09-09T02:31:50;99959.84;;;19.98;63.32
61055;BME280;46939;48.940;8.258;2022-09-09T02:34:27;99951.78;;;19.98;63.79
61055;BME280;46939;48.940;8.258;2022-09-09T02:36:57;99952.28;;;19.90;63.86
61055;BME280;46939;48.940;8.258;2022-09-09T02:39:27;99953.31;;;19.84;63.44
61055;BME280;46939;48.940;8.258;2022-09-09T02:41:56;99937.50;;;19.87;63.46
61055;BME280;46939;48.940;8.258;2022-09-09T02:44:33;99935.06;;;19.91;64.22
61055;BME280;46939;48.940;8.258;2022-09-09T02:47:10;99950.97;;;19.97;63.38
61055;BME280;46939;48.940;8.258;2022-09-09T02:49:48;99950.94;;;19.87;63.45
61055;BME280;46939;48.940;8.258;2022-09-09T02:52:26;99947.19;;;19.93;63.41
61055;BME280;46939;48.940;8.258;2022-09-09T02:55:04;99945.59;;;19.97;64.15
61055;BME280;46939;48.940;8.258;2022-09-09T02:57:34;99943.19;;;20.01;64.13
61055;BME280;46939;48.940;8.258;2022-09-09T03:00:08;99944.53;;;19.98;64.12
61055;BME280;46939;48.940;8.258;2022-09-09T03:02:37;99942.91;;;19.97;64.00
61055;BME280;46939;48.940;8.258;2022-09-09T03:05:07;99941.03;;;19.98;64.22
61055;BME280;46939;48.940;8.258;2022-09-09T03:07:36;99951.25;;;19.96;64.07
61055;BME280;46939;48.940;8.258;2022-09-09T03:10:06;99952.84;;;19.97;64.08
61055;BME280;46939;48.940;8.258;2022-09-09T03:12:36;99956.34;;;19.92;64.55
61055;BME280;46939;48.940;8.258;2022-09-09T03:15:11;99941.81;;;19.93;64.61
61055;BME280;46939;48.940;8.258;2022-09-09T03:17:40;99951.19;;;19.91;64.43
61055;BME280;46939;48.940;8.258;2022-09-09T03:20:09;99949.28;;;19.86;64.90
61055;BME280;46939;48.940;8.258;2022-09-09T03:22:38;99961.41;;;19.84;64.75
61055;BME280;46939;48.940;8.258;2022-09-09T03:25:07;99962.69;;;19.76;64.48
61055;BME280;46939;48.940;8.258;2022-09-09T03:27:36;99958.66;;;19.79;64.30
61055;BME280;46939;48.940;8.258;2022-09-09T03:30:07;99951.09;;;19.75;64.20
61055;BME280;46939;48.940;8.258;2022-09-09T03:32:39;99958.63;;;19.73;64.84
61055;BME280;46939;48.940;8.258;2022-09-09T03:35:08;99951.06;;;19.70;65.10
61055;BME280;46939;48.940;8.258;2022-09-09T03:37:36;99947.84;;;19.68;64.85
61055;BME280;46939;48.940;8.258;2022-09-09T03:40:07;99952.22;;;19.80;64.77
61055;BME280;46939;48.940;8.258;2022-09-09T03:42:36;99951.94;;;19.76;64.82
61055;BME280;46939;48.940;8.258;2022-09-09T03:45:07;99957.31;;;19.76;64.56
61055;BME280;46939;48.940;8.258;2022-09-09T03:47:40;99944.91;;;19.75;64.75
61055;BME280;46939;48.940;8.258;2022-09-09T03:50:09;99958.31;;;19.70;64.23
61055;BME280;46939;48.940;8.258;2022-09-09T03:52:43;99958.63;;;19.73;64.42
61055;BME280;46939;48.940;8.258;2022-09-09T03:55:19;99955.94;;;19.73;64.54
61055;BME280;46939;48.940;8.258;2022-09-09T03:57:47;99964.53;;;19.75;64.67
61055;BME280;46939;48.940;8.258;2022-09-09T04:00:16;99961.09;;;19.80;64.43
61055;BME280;46939;48.940;8.258;2022-09-09T04:02:53;99966.41;;;19.75;64.82
61055;BME280;46939;48.940;8.258;2022-09-09T04:05:23;99964.00;;;19.73;65.04
61055;BME280;46939;48.940;8.258;2022-09-09T04:07:52;99965.31;;;19.71;64.60
61055;BME280;46939;48.940;8.258;2022-09-09T04:10:21;99965.94;;;19.83;64.57
61055;BME280;46939;48.940;8.258;2022-09-09T04:12:51;99970.00;;;19.91;64.66
61055;BME280;46939;48.940;8.258;2022-09-09T04:15:21;99973.78;;;19.90;64.27
61055;BME280;46939;48.940;8.258;2022-09-09T04:17:49;99970.59;;;19.93;64.36
61055;BME280;46939;48.940;8.258;2022-09-09T04:20:20;99968.69;;;19.93;64.81
61055;BME280;46939;48.940;8.258;2022-09-09T04:22:50;99964.94;;;19.94;64.43
61055;BME280;46939;48.940;8.258;2022-09-09T04:25:18;99975.47;;;20.01;64.54
61055;BME280;46939;48.940;8.258;2022-09-09T04:27:47;99971.69;;;19.97;64.32
61055;BME280;46939;48.940;8.258;2022-09-09T04:30:17;99977.38;;;20.06;64.63
61055;BME280;46939;48.940;8.258;2022-09-09T04:32:46;99973.06;;;20.05;64.12
61055;BME280;46939;48.940;8.258;2022-09-09T04:35:15;99971.16;;;20.00;63.31
61055;BME280;46939;48.940;8.258;2022-09-09T04:37:48;99976.84;;;20.09;63.65
61055;BME280;46939;48.940;8.258;2022-09-09T04:40:17;99978.16;;;20.01;63.65
61055;BME280;46939;48.940;8.258;2022-09-09T04:42:45;99978.75;;;20.13;63.13
61055;BME280;46939;48.940;8.258;2022-09-09T04:45:16;99976.34;;;20.12;63.16
61055;BME280;46939;48.940;8.258;2022-09-09T04:47:45;99982.00;;;20.15;62.60
61055;BME280;46939;48.940;8.258;2022-09-09T04:50:14;99990.63;;;20.17;62.66
61055;BME280;46939;48.940;8.258;2022-09-09T04:52:48;99984.44;;;20.17;62.66
61055;BME280;46939;48.940;8.258;2022-09-09T04:55:17;99985.72;;;20.09;62.72
61055;BME280;46939;48.940;8.258;2022-09-09T04:57:45;99994.66;;;20.20;62.26
61055;BME280;46939;48.940;8.258;2022-09-09T05:00:15;99988.78;;;20.28;61.63
61055;BME280;46939;48.940;8.258;2022-09-09T05:02:44;99992.28;;;20.29;61.92
61055;BME280;46939;48.940;8.258;2022-09-09T05:05:13;99997.16;;;20.32;61.64
61055;BME280;46939;48.940;8.258;2022-09-09T05:07:42;100009.72;;;20.21;61.41
61055;BME280;46939;48.940;8.258;2022-09-09T05:10:14;100005.94;;;20.17;62.09
61055;BME280;46939;48.940;8.258;2022-09-09T05:12:52;100005.13;;;20.16;62.58
61055;BME280;46939;48.940;8.258;2022-09-09T05:15:25;100001.41;;;20.22;62.06
61055;BME280;46939;48.940;8.258;2022-09-09T05:17:57;100001.66;;;20.21;61.41
61055;BME280;46939;48.940;8.258;2022-09-09T05:20:30;99998.44;;;20.19;62.18
61055;BME280;46939;48.940;8.258;2022-09-09T05:23:00;100000.63;;;20.22;61.35
61055;BME280;46939;48.940;8.258;2022-09-09T05:25:34;100005.50;;;20.30;61.04
61055;BME280;46939;48.940;8.258;2022-09-09T05:28:02;100005.50;;;20.30;60.93
61055;BME280;46939;48.940;8.258;2022-09-09T05:30:33;100014.91;;;20.33;61.34
61055;BME280;46939;48.940;8.258;2022-09-09T05:33:06;100004.94;;;20.33;60.95
61055;BME280;46939;48.940;8.258;2022-09-09T05:35:34;100013.59;;;20.35;60.88
61055;BME280;46939;48.940;8.258;2022-09-09T05:38:03;100013.00;;;20.28;61.03
61055;BME280;46939;48.940;8.258;2022-09-09T05:40:35;100015.47;;;20.30;60.78
61055;BME280;46939;48.940;8.258;2022-09-09T05:43:04;100017.28;;;20.24;61.14
61055;BME280;46939;48.940;8.258;2022-09-09T05:45:33;100021.63;;;20.30;61.36
61055;BME280;46939;48.940;8.258;2022-09-09T05:48:02;100021.94;;;20.39;61.25
61055;BME280;46939;48.940;8.258;2022-09-09T05:50:31;100022.03;;;20.49;60.69
61055;BME280;46939;48.940;8.258;2022-09-09T05:53:00;100027.44;;;20.54;61.49
61055;BME280;46939;48.940;8.258;2022-09-09T05:55:29;100032.59;;;20.61;61.07
61055;BME280;46939;48.940;8.258;2022-09-09T05:58:00;100029.34;;;20.64;60.77
61055;BME280;46939;48.940;8.258;2022-09-09T06:00:29;100029.34;;;20.64;60.71
61055;BME280;46939;48.940;8.258;2022-09-09T06:02:59;100024.81;;;20.75;60.50
61055;BME280;46939;48.940;8.258;2022-09-09T06:05:29;100021.63;;;20.78;61.00
61055;BME280;46939;48.940;8.258;2022-09-09T06:08:00;100025.91;;;20.79;60.24
61055;BME280;46939;48.940;8.258;2022-09-09T06:10:30;100024.59;;;20.81;60.27
61055;BME280;46939;48.940;8.258;2022-09-09T06:13:02;100023.50;;;20.82;59.84
61055;BME280;46939;48.940;8.258;2022-09-09T06:15:31;100020.59;;;20.89;59.54
61055;BME280;46939;48.940;8.258;2022-09-09T06:18:00;100032.44;;;20.98;60.20
61055;BME280;46939;48.940;8.258;2022-09-09T06:20:28;100025.72;;;21.01;60.03
61055;BME280;46939;48.940;8.258;2022-09-09T06:22:57;100027.63;;;21.05;59.93
61055;BME280;46939;48.940;8.258;2022-09-09T06:25:26;100033.00;;;21.05;59.13
61055;BME280;46939;48.940;8.258;2022-09-09T06:27:54;100030.88;;;21.07;58.61
61055;BME280;46939;48.940;8.258;2022-09-09T06:30:26;100027.38;;;21.07;58.92
61055;BME280;46939;48.940;8.258;2022-09-09T06:32:55;100024.13;;;21.00;58.12
61055;BME280;46939;48.940;8.258;2022-09-09T06:35:24;100020.66;;;21.14;59.04
61055;BME280;46939;48.940;8.258;2022-09-09T06:37:53;100019.84;;;21.24;58.87
61055;BME280;46939;48.940;8.258;2022-09-09T06:40:24;100020.94;;;21.28;58.27
61055;BME280;46939;48.940;8.258;2022-09-09T06:42:52;100018.00;;;21.30;57.74
61055;BME280;46939;48.940;8.258;2022-09-09T06:45:36;100026.88;;;21.30;57.49
61055;BME280;46939;48.940;8.258;2022-09-09T06:48:05;100020.41;;;21.31;57.64
61055;BME280;46939;48.940;8.258;2022-09-09T06:50:34;100023.69;;;21.33;57.38
61055;BME280;46939;48.940;8.258;2022-09-09T06:53:03;100028.56;;;21.41;57.56
61055;BME280;46939;48.940;8.258;2022-09-09T06:55:31;100026.38;;;21.38;57.56
61055;BME280;46939;48.940;8.258;2022-09-09T06:58:00;100021.28;;;21.47;57.05
61055;BME280;46939;48.940;8.258;2022-09-09T07:00:29;100023.16;;;21.62;57.03
61055;BME280;46939;48.940;8.258;2022-09-09T07:03:01;100023.44;;;21.60;56.22
61055;BME280;46939;48.940;8.258;2022-09-09T07:05:29;100024.25;;;21.61;56.38
61055;BME280;46939;48.940;8.258;2022-09-09T07:07:58;100021.53;;;21.71;57.79
61055;BME280;46939;48.940;8.258;2022-09-09T07:10:28;100023.16;;;21.82;56.51
61055;BME280;46939;48.940;8.258;2022-09-09T07:12:56;100026.66;;;21.93;55.77
61055;BME280;46939;48.940;8.258;2022-09-09T07:15:26;100023.69;;;21.89;55.42
61055;BME280;46939;48.940;8.258;2022-09-09T07:17:55;100035.56;;;21.88;55.85
61055;BME280;46939;48.940;8.258;2022-09-09T07:20:32;100036.66;;;22.03;55.68
61055;BME280;46939;48.940;8.258;2022-09-09T07:23:00;100034.44;;;22.10;55.46
61055;BME280;46939;48.940;8.258;2022-09-09T07:25:29;100033.41;;;22.01;55.22
61055;BME280;46939;48.940;8.258;2022-09-09T07:27:57;100025.59;;;21.99;54.94
61055;BME280;46939;48.940;8.258;2022-09-09T07:30:26;100021.25;;;22.24;55.27
61055;BME280;46939;48.940;8.258;2022-09-09T07:32:57;100027.69;;;22.38;55.14
61055;BME280;46939;48.940;8.258;2022-09-09T07:35:26;100035.44;;;22.60;55.59
61055;BME280;46939;48.940;8.258;2022-09-09T07:38:00;100033.25;;;22.72;54.12
61055;BME280;46939;48.940;8.258;2022-09-09T07:40:29;100037.06;;;22.66;54.02
61055;BME280;46939;48.940;8.258;2022-09-09T07:42:58;100040.81;;;22.70;53.68
61055;BME280;46939;48.940;8.258;2022-09-09T07:45:27;100040.78;;;22.75;53.60
61055;BME280;46939;48.940;8.258;2022-09-09T07:47:58;100031.28;;;22.83;54.44
61055;BME280;46939;48.940;8.258;2022-09-09T07:50:26;100031.03;;;22.84;53.08
61055;BME280;46939;48.940;8.258;2022-09-09T07:52:58;100033.69;;;23.00;53.48
61055;BME280;46939;48.940;8.258;2022-09-09T07:55:28;100044.25;;;22.96;53.64
61055;BME280;46939;48.940;8.258;2022-09-09T07:57:57;100044.25;;;22.96;53.44
61055;BME280;46939;48.940;8.258;2022-09-09T08:00:25;100046.44;;;22.84;53.29
61055;BME280;46939;48.940;8.258;2022-09-09T08:02:56;100053.97;;;22.97;53.52
61055;BME280;46939;48.940;8.258;2022-09-09T08:05:27;100061.09;;;23.27;53.34
61055;BME280;46939;48.940;8.258;2022-09-09T08:07:59;100054.09;;;23.26;52.40
61055;BME280;46939;48.940;8.258;2022-09-09T08:10:29;100059.66;;;23.40;51.76
61055;BME280;46939;48.940;8.258;2022-09-09T08:12:58;100056.88;;;23.11;51.76
61055;BME280;46939;48.940;8.258;2022-09-09T08:15:27;100067.25;;;23.33;52.17
61055;BME280;46939;48.940;8.258;2022-09-09T08:17:56;100059.56;;;23.55;52.73
61055;BME280;46939;48.940;8.258;2022-09-09T08:20:25;100074.91;;;23.26;52.48
61055;BME280;46939;48.940;8.258;2022-09-09T08:22:55;100070.84;;;23.23;54.49
61055;BME280;46939;48.940;8.258;2022-09-09T08:25:27;100060.84;;;23.24;54.20
61055;BME280;46939;48.940;8.258;2022-09-09T08:27:55;100073.00;;;23.21;54.81
61055;BME280;46939;48.940;8.258;2022-09-09T08:30:24;100076.75;;;23.30;54.59
61055;BME280;46939;48.940;8.258;2022-09-09T08:32:52;100077.06;;;23.24;54.48
61055;BME280;46939;48.940;8.258;2022-09-09T08:35:22;100084.66;;;23.22;54.34
61055;BME280;46939;48.940;8.258;2022-09-09T08:37:53;100085.72;;;23.26;55.13
61055;BME280;46939;48.940;8.258;2022-09-09T08:40:29;100094.16;;;23.14;54.68
61055;BME280;46939;48.940;8.258;2022-09-09T08:43:02;100097.72;;;22.89;55.80
61055;BME280;46939;48.940;8.258;2022-09-09T08:45:36;100096.13;;;22.78;56.07
61055;BME280;46939;48.940;8.258;2022-09-09T08:48:16;100094.28;;;22.73;58.34
61055;BME280;46939;48.940;8.258;2022-09-09T08:50:49;100097.06;;;21.91;58.85
61055;BME280;46939;48.940;8.258;2022-09-09T08:53:28;100086.28;;;21.76;58.96
61055;BME280;46939;48.940;8.258;2022-09-09T08:56:08;100092.25;;;22.14;58.61
61055;BME280;46939;48.940;8.258;2022-09-09T08:58:46;100093.56;;;22.27;58.80
61055;BME280;46939;48.940;8.258;2022-09-09T09:01:42;100105.97;;;22.38;58.87
61055;BME280;46939;48.940;8.258;2022-09-09T09:04:29;100093.78;;;22.51;58.79
61055;BME280;46939;48.940;8.258;2022-09-09T09:07:11;100090.25;;;22.65;59.87
61055;BME280;46939;48.940;8.258;2022-09-09T09:09:56;100085.66;;;22.56;59.18
61055;BME280;46939;48.940;8.258;2022-09-09T09:12:32;100086.72;;;22.70;59.49
61055;BME280;46939;48.940;8.258;2022-09-09T09:15:14;100082.13;;;22.71;60.47
61055;BME280;46939;48.940;8.258;2022-09-09T09:17:45;100076.91;;;23.00;59.88
61055;BME280;46939;48.940;8.258;2022-09-09T09:20:19;100086.84;;;23.14;58.81
61055;BME280;46939;48.940;8.258;2022-09-09T09:22:51;100077.72;;;23.00;56.57
61055;BME280;46939;48.940;8.258;2022-09-09T09:25:22;100090.69;;;22.98;54.94
61055;BME280;46939;48.940;8.258;2022-09-09T09:27:58;100085.03;;;22.95;55.76
61055;BME280;46939;48.940;8.258;2022-09-09T09:30:39;100078.53;;;23.01;55.22
61055;BME280;46939;48.940;8.258;2022-09-09T09:33:15;100083.88;;;23.11;55.98
61055;BME280;46939;48.940;8.258;2022-09-09T09:35:45;100088.56;;;22.95;54.04
61055;BME280;46939;48.940;8.258;2022-09-09T09:38:17;100092.47;;;22.38;55.60
61055;BME280;46939;48.940;8.258;2022-09-09T09:40:50;100097.50;;;22.75;54.93
61055;BME280;46939;48.940;8.258;2022-09-09T09:43:25;100094.53;;;23.42;56.71
61055;BME280;46939;48.940;8.258;2022-09-09T09:45:57;100091.66;;;23.72;53.28
61055;BME280;46939;48.940;8.258;2022-09-09T09:48:27;100090.78;;;23.32;52.46
61055;BME280;46939;48.940;8.258;2022-09-09T09:51:01;100087.69;;;23.54;52.58
61055;BME280;46939;48.940;8.258;2022-09-09T09:53:36;100085.88;;;23.84;52.73
61055;BME280;46939;48.940;8.258;2022-09-09T09:56:11;100070.84;;;24.02;52.58
61055;BME280;46939;48.940;8.258;2022-09-09T09:58:51;100076.97;;;24.12;51.41
61055;BME280;46939;48.940;8.258;2022-09-09T10:01:28;100069.53;;;24.57;50.37
61055;BME280;46939;48.940;8.258;2022-09-09T10:04:01;100075.59;;;24.44;49.48
61055;BME280;46939;48.940;8.258;2022-09-09T10:06:31;100074.22;;;24.71;49.26
61055;BME280;46939;48.940;8.258;2022-09-09T10:09:02;100079.53;;;24.81;49.82
61055;BME280;46939;48.940;8.258;2022-09-09T10:11:44;100075.09;;;24.90;49.90
61055;BME280;46939;48.940;8.258;2022-09-09T10:14:20;100068.78;;;24.76;49.64
61055;BME280;46939;48.940;8.258;2022-09-09T10:16:52;100065.88;;;24.43;47.00
61055;BME280;46939;48.940;8.258;2022-09-09T10:19:30;100059.31;;;24.73;48.60
61055;BME280;46939;48.940;8.258;2022-09-09T10:22:11;100060.41;;;24.72;45.99
61055;BME280;46939;48.940;8.258;2022-09-09T10:24:57;100058.81;;;24.90;47.59
61055;BME280;46939;48.940;8.258;2022-09-09T10:27:39;100060.03;;;24.79;45.87
61055;BME280;46939;48.940;8.258;2022-09-09T10:30:17;100046.69;;;24.64;46.12
61055;BME280;46939;48.940;8.258;2022-09-09T10:32:48;100052.81;;;24.93;46.23
61055;BME280;46939;48.940;8.258;2022-09-09T10:35:29;100047.28;;;25.03;45.17
61055;BME280;46939;48.940;8.258;2022-09-09T10:38:16;100056.53;;;25.40;45.92
61055;BME280;46939;48.940;8.258;2022-09-09T10:41:15;100050.81;;;25.79;46.10
61055;BME280;46939;48.940;8.258;2022-09-09T10:44:06;100049.41;;;26.28;43.35
61055;BME280;46939;48.940;8.258;2022-09-09T10:46:52;100047.50;;;26.43;42.04
61055;BME280;46939;48.940;8.258;2022-09-09T10:49:40;100056.88;;;25.71;41.74
61055;BME280;46939;48.940;8.258;2022-09-09T10:52:15;100051.94;;;25.41;42.33
61055;BME280;46939;48.940;8.258;2022-09-09T10:54:54;100047.72;;;25.67;41.36
61055;BME280;46939;48.940;8.258;2022-09-09T10:57:29;100046.00;;;26.23;41.97
61055;BME280;46939;48.940;8.258;2022-09-09T11:00:03;100044.94;;;26.79;40.86
61055;BME280;46939;48.940;8.258;2022-09-09T11:02:35;100044.13;;;27.29;40.72
61055;BME280;46939;48.940;8.258;2022-09-09T11:05:08;100042.97;;;27.43;39.94
61055;BME280;46939;48.940;8.258;2022-09-09T11:07:47;100038.97;;;27.86;38.33
61055;BME280;46939;48.940;8.258;2022-09-09T11:10:22;100037.31;;;27.76;38.26
61055;BME280;46939;48.940;8.258;2022-09-09T11:12:58;100034.75;;;28.02;37.76
61055;BME280;46939;48.940;8.258;2022-09-09T11:15:31;100026.13;;;28.09;38.24
61055;BME280;46939;48.940;8.258;2022-09-09T11:18:08;100031.69;;;28.35;36.43
61055;BME280;46939;48.940;8.258;2022-09-09T11:20:39;100018.13;;;28.12;36.28
61055;BME280;46939;48.940;8.258;2022-09-09T11:23:12;100029.81;;;28.13;35.60
61055;BME280;46939;48.940;8.258;2022-09-09T11:25:47;100026.84;;;27.92;35.98
61055;BME280;46939;48.940;8.258;2022-09-09T11:28:32;100027.34;;;27.71;36.30
61055;BME280;46939;48.940;8.258;2022-09-09T11:31:21;100032.44;;;27.87;38.22
61055;BME280;46939;48.940;8.258;2022-09-09T11:34:13;100031.97;;;27.93;37.54
61055;BME280;46939;48.940;8.258;2022-09-09T11:37:17;100028.28;;;27.44;39.22
61055;BME280;46939;48.940;8.258;2022-09-09T11:40:09;100036.47;;;27.31;39.93
61055;BME280;46939;48.940;8.258;2022-09-09T11:42:38;100029.25;;;27.26;40.65
61055;BME280;46939;48.940;8.258;2022-09-09T11:45:22;100020.81;;;27.14;39.75
61055;BME280;46939;48.940;8.258;2022-09-09T11:47:55;100014.91;;;27.34;39.77
61055;BME280;46939;48.940;8.258;2022-09-09T11:50:34;100014.34;;;27.68;38.21
61055;BME280;46939;48.940;8.258;2022-09-09T11:53:19;99999.31;;;28.33;38.11
61055;BME280;46939;48.940;8.258;2022-09-09T11:56:05;99999.13;;;28.69;38.12
61055;BME280;46939;48.940;8.258;2022-09-09T11:58:38;100004.44;;;28.35;37.41
61055;BME280;46939;48.940;8.258;2022-09-09T12:01:27;100003.47;;;27.68;38.82
61055;BME280;46939;48.940;8.258;2022-09-09T12:04:10;99998.88;;;27.55;37.76
61055;BME280;46939;48.940;8.258;2022-09-09T12:06:49;100008.94;;;26.96;38.76
61055;BME280;46939;48.940;8.258;2022-09-09T12:09:27;100000.50;;;27.34;38.44
61055;BME280;46939;48.940;8.258;2022-09-09T12:12:30;99994.88;;;27.53;38.11
61055;BME280;46939;48.940;8.258;2022-09-09T12:17:48;99992.66;;;27.77;38.28
61055;BME280;46939;48.940;8.258;2022-09-09T12:20:20;99998.59;;;27.79;39.10
61055;BME280;46939;48.940;8.258;2022-09-09T12:23:13;100005.50;;;27.63;38.53
61055;BME280;46939;48.940;8.258;2022-09-09T12:25:57;99996.59;;;27.26;38.09
61055;BME280;46939;48.940;8.258;2022-09-09T12:28:39;99991.34;;;27.52;39.77
61055;BME280;46939;48.940;8.258;2022-09-09T12:31:14;99986.97;;;27.87;38.58
61055;BME280;46939;48.940;8.258;2022-09-09T12:33:46;99983.31;;;28.01;37.59
61055;BME280;46939;48.940;8.258;2022-09-09T12:36:19;99990.34;;;27.70;37.25
61055;BME280;46939;48.940;8.258;2022-09-09T12:38:53;99991.72;;;27.59;36.54
61055;BME280;46939;48.940;8.258;2022-09-09T12:41:23;99982.50;;;27.91;36.81
61055;BME280;46939;48.940;8.258;2022-09-09T12:44:03;100003.38;;;28.13;36.42
61055;BME280;46939;48.940;8.258;2022-09-09T12:46:36;100004.88;;;27.43;37.16
61055;BME280;46939;48.940;8.258;2022-09-09T12:49:26;99996.78;;;27.30;38.72
61055;BME280;46939;48.940;8.258;2022-09-09T12:51:56;100002.09;;;27.12;38.81
61055;BME280;46939;48.940;8.258;2022-09-09T12:54:28;100002.28;;;27.61;38.01
61055;BME280;46939;48.940;8.258;2022-09-09T12:56:57;99998.03;;;27.46;38.34
61055;BME280;46939;48.940;8.258;2022-09-09T12:59:27;99998.63;;;27.20;38.43
61055;BME280;46939;48.940;8.258;2022-09-09T13:02:16;99992.84;;;26.99;38.62
61055;BME280;46939;48.940;8.258;2022-09-09T13:04:47;99996.50;;;27.17;39.33
61055;BME280;46939;48.940;8.258;2022-09-09T13:07:16;100000.78;;;26.96;39.20
61055;BME280;46939;48.940;8.258;2022-09-09T13:09:48;99992.50;;;26.37;40.28
61055;BME280;46939;48.940;8.258;2022-09-09T13:12:19;99983.72;;;26.82;40.45
61055;BME280;46939;48.940;8.258;2022-09-09T13:14:51;99984.34;;;27.01;39.03
61055;BME280;46939;48.940;8.258;2022-09-09T13:17:23;99977.00;;;27.01;38.30
61055;BME280;46939;48.940;8.258;2022-09-09T13:19:53;99975.22;;;27.33;38.73
61055;BME280;46939;48.940;8.258;2022-09-09T13:22:27;99966.63;;;27.40;38.46
61055;BME280;46939;48.940;8.258;2022-09-09T13:25:03;99961.34;;;27.66;38.31
61055;BME280;46939;48.940;8.258;2022-09-09T13:27:36;99965.44;;;27.55;37.95
61055;BME280;46939;48.940;8.258;2022-09-09T13:30:23;99957.19;;;27.37;38.82
61055;BME280;46939;48.940;8.258;2022-09-09T13:33:19;99957.03;;;27.42;38.68
61055;BME280;46939;48.940;8.258;2022-09-09T13:35:50;99962.34;;;27.25;39.21